sensor_id;sensor_type;location;lat;lon;timestamp;temperature;humidity
68609;SHT31;55581;46.718;7.690;2022-08-05T00:00:57;24.45;58.63
68609;SHT31;55581;46.718;7.690;2022-08-05T00:03:23;24.48;58.28
68609;SHT31;55581;46.718;7.690;2022-08-05T00:05:48;24.36;60.01
68609;SHT31;55581;46.718;7.690;2022-08-05T00:08:13;24.55;56.82
68609;SHT31;55581;46.718;7.690;2022-08-05T00:10:39;24.60;57.41
68609;SHT31;55581;46.718;7.690;2022-08-05T00:13:04;24.63;58.42
68609;SHT31;55581;46.718;7.690;2022-08-05T00:15:29;24.46;63.40
68609;SHT31;55581;46.718;7.690;2022-08-05T00:17:55;24.05;64.72
68609;SHT31;55581;46.718;7.690;2022-08-05T00:20:20;23.45;73.46
68609;SHT31;55581;46.718;7.690;2022-08-05T00:22:46;23.20;74.71
68609;SHT31;55581;46.718;7.690;2022-08-05T00:25:11;23.07;75.17
68609;SHT31;55581;46.718;7.690;2022-08-05T00:27:36;22.98;74.04
68609;SHT31;55581;46.718;7.690;2022-08-05T00:30:06;22.75;77.14
68609;SHT31;55581;46.718;7.690;2022-08-05T00:32:31;22.70;77.05
68609;SHT31;55581;46.718;7.690;2022-08-05T00:34:57;22.56;78.61
68609;SHT31;55581;46.718;7.690;2022-08-05T00:37:26;22.53;77.51
68609;SHT31;55581;46.718;7.690;2022-08-05T00:39:52;22.39;78.06
68609;SHT31;55581;46.718;7.690;2022-08-05T00:42:35;22.15;80.14
68609;SHT31;55581;46.718;7.690;2022-08-05T00:45:01;21.95;80.35
68609;SHT31;55581;46.718;7.690;2022-08-05T00:47:27;21.85;80.28
68609;SHT31;55581;46.718;7.690;2022-08-05T00:49:53;21.87;81.40
68609;SHT31;55581;46.718;7.690;2022-08-05T00:52:19;21.87;80.63
68609;SHT31;55581;46.718;7.690;2022-08-05T00:54:45;21.88;80.40
68609;SHT31;55581;46.718;7.690;2022-08-05T00:57:11;21.91;80.02
68609;SHT31;55581;46.718;7.690;2022-08-05T00:59:36;22.05;79.25
68609;SHT31;55581;46.718;7.690;2022-08-05T01:02:02;22.10;79.15
68609;SHT31;55581;46.718;7.690;2022-08-05T01:04:28;22.16;78.34
68609;SHT31;55581;46.718;7.690;2022-08-05T01:06:55;22.18;78.13
68609;SHT31;55581;46.718;7.690;2022-08-05T01:09:21;22.15;76.13
68609;SHT31;55581;46.718;7.690;2022-08-05T01:11:52;22.15;76.88
68609;SHT31;55581;46.718;7.690;2022-08-05T01:17:10;22.29;78.23
68609;SHT31;55581;46.718;7.690;2022-08-05T01:22:25;21.99;78.65
68609;SHT31;55581;46.718;7.690;2022-08-05T01:30:08;22.12;79.11
68609;SHT31;55581;46.718;7.690;2022-08-05T01:32:37;21.98;81.06
68609;SHT31;55581;46.718;7.690;2022-08-05T01:35:10;21.91;80.23
68609;SHT31;55581;46.718;7.690;2022-08-05T01:37:47;21.74;82.54
68609;SHT31;55581;46.718;7.690;2022-08-05T01:40:14;21.77;81.59
68609;SHT31;55581;46.718;7.690;2022-08-05T01:42:42;21.80;81.08
68609;SHT31;55581;46.718;7.690;2022-08-05T01:45:09;21.77;80.44
68609;SHT31;55581;46.718;7.690;2022-08-05T01:47:37;21.58;82.75
68609;SHT31;55581;46.718;7.690;2022-08-05T01:50:10;21.70;78.52
68609;SHT31;55581;46.718;7.690;2022-08-05T01:52:38;21.84;79.41
68609;SHT31;55581;46.718;7.690;2022-08-05T01:55:08;21.91;80.57
68609;SHT31;55581;46.718;7.690;2022-08-05T01:57:40;21.80;81.88
68609;SHT31;55581;46.718;7.690;2022-08-05T02:00:07;21.75;81.21
68609;SHT31;55581;46.718;7.690;2022-08-05T02:02:38;21.78;80.81
68609;SHT31;55581;46.718;7.690;2022-08-05T02:05:08;21.77;80.02
68609;SHT31;55581;46.718;7.690;2022-08-05T02:07:34;21.82;79.08
68609;SHT31;55581;46.718;7.690;2022-08-05T02:10:01;21.84;80.45
68609;SHT31;55581;46.718;7.690;2022-08-05T02:12:43;21.88;77.81
68609;SHT31;55581;46.718;7.690;2022-08-05T02:15:25;21.85;79.89
68609;SHT31;55581;46.718;7.690;2022-08-05T02:18:02;21.82;79.14
68609;SHT31;55581;46.718;7.690;2022-08-05T02:20:39;21.78;80.31
68609;SHT31;55581;46.718;7.690;2022-08-05T02:23:08;21.67;82.62
68609;SHT31;55581;46.718;7.690;2022-08-05T02:25:36;21.61;81.08
68609;SHT31;55581;46.718;7.690;2022-08-05T02:28:03;21.57;81.20
68609;SHT31;55581;46.718;7.690;2022-08-05T02:30:42;21.57;80.86
68609;SHT31;55581;46.718;7.690;2022-08-05T02:33:10;21.58;78.85
68609;SHT31;55581;46.718;7.690;2022-08-05T02:35:40;21.61;78.83
68609;SHT31;55581;46.718;7.690;2022-08-05T02:38:09;21.60;77.92
68609;SHT31;55581;46.718;7.690;2022-08-05T02:40:40;21.58;77.88
68609;SHT31;55581;46.718;7.690;2022-08-05T02:43:09;21.65;77.45
68609;SHT31;55581;46.718;7.690;2022-08-05T02:45:37;21.77;76.52
68609;SHT31;55581;46.718;7.690;2022-08-05T02:48:05;21.70;77.02
68609;SHT31;55581;46.718;7.690;2022-08-05T02:50:31;21.74;76.85
68609;SHT31;55581;46.718;7.690;2022-08-05T02:52:59;21.68;76.89
68609;SHT31;55581;46.718;7.690;2022-08-05T02:55:26;21.65;76.75
68609;SHT31;55581;46.718;7.690;2022-08-05T02:57:53;21.64;77.60
68609;SHT31;55581;46.718;7.690;2022-08-05T03:00:19;21.73;76.17
68609;SHT31;55581;46.718;7.690;2022-08-05T03:02:46;21.73;75.69
68609;SHT31;55581;46.718;7.690;2022-08-05T03:05:15;21.63;76.71
68609;SHT31;55581;46.718;7.690;2022-08-05T03:07:42;21.61;76.87
68609;SHT31;55581;46.718;7.690;2022-08-05T03:10:09;21.55;77.35
68609;SHT31;55581;46.718;7.690;2022-08-05T03:12:36;21.64;77.17
68609;SHT31;55581;46.718;7.690;2022-08-05T03:15:04;21.70;76.34
68609;SHT31;55581;46.718;7.690;2022-08-05T03:17:30;21.78;76.56
68609;SHT31;55581;46.718;7.690;2022-08-05T03:19:55;21.81;76.58
68609;SHT31;55581;46.718;7.690;2022-08-05T03:22:21;21.77;76.78
68609;SHT31;55581;46.718;7.690;2022-08-05T03:24:48;21.73;77.29
68609;SHT31;55581;46.718;7.690;2022-08-05T03:27:14;21.73;77.84
68609;SHT31;55581;46.718;7.690;2022-08-05T03:29:40;21.77;77.69
68609;SHT31;55581;46.718;7.690;2022-08-05T03:32:09;21.82;76.95
68609;SHT31;55581;46.718;7.690;2022-08-05T03:34:38;21.82;76.90
68609;SHT31;55581;46.718;7.690;2022-08-05T03:37:04;21.89;76.44
68609;SHT31;55581;46.718;7.690;2022-08-05T03:39:30;21.91;75.60
68609;SHT31;55581;46.718;7.690;2022-08-05T03:41:56;21.89;76.21
68609;SHT31;55581;46.718;7.690;2022-08-05T03:44:22;21.85;76.00
68609;SHT31;55581;46.718;7.690;2022-08-05T03:46:47;21.81;76.78
68609;SHT31;55581;46.718;7.690;2022-08-05T03:49:13;21.75;76.82
68609;SHT31;55581;46.718;7.690;2022-08-05T03:51:42;21.61;77.02
68609;SHT31;55581;46.718;7.690;2022-08-05T03:56:43;21.58;78.49
68609;SHT31;55581;46.718;7.690;2022-08-05T03:59:16;21.58;78.10
68609;SHT31;55581;46.718;7.690;2022-08-05T04:01:45;21.73;77.79
68609;SHT31;55581;46.718;7.690;2022-08-05T04:04:13;21.68;78.14
68609;SHT31;55581;46.718;7.690;2022-08-05T04:06:39;21.61;79.26
68609;SHT31;55581;46.718;7.690;2022-08-05T04:09:06;21.53;79.79
68609;SHT31;55581;46.718;7.690;2022-08-05T04:11:36;21.44;81.25
68609;SHT31;55581;46.718;7.690;2022-08-05T04:14:02;21.47;79.54
68609;SHT31;55581;46.718;7.690;2022-08-05T04:16:28;21.37;79.78
68609;SHT31;55581;46.718;7.690;2022-08-05T04:18:54;21.36;80.73
68609;SHT31;55581;46.718;7.690;2022-08-05T04:21:19;21.37;81.19
68609;SHT31;55581;46.718;7.690;2022-08-05T04:23:45;21.30;79.85
68609;SHT31;55581;46.718;7.690;2022-08-05T04:26:12;21.16;77.35
68609;SHT31;55581;46.718;7.690;2022-08-05T04:28:38;21.09;78.46
68609;SHT31;55581;46.718;7.690;2022-08-05T04:31:06;21.10;79.29
68609;SHT31;55581;46.718;7.690;2022-08-05T04:33:32;21.02;78.39
68609;SHT31;55581;46.718;7.690;2022-08-05T04:35:57;21.09;80.32
68609;SHT31;55581;46.718;7.690;2022-08-05T04:38:23;21.12;80.98
68609;SHT31;55581;46.718;7.690;2022-08-05T04:40:48;21.12;82.04
68609;SHT31;55581;46.718;7.690;2022-08-05T04:43:14;21.12;81.06
68609;SHT31;55581;46.718;7.690;2022-08-05T04:45:39;21.13;79.65
68609;SHT31;55581;46.718;7.690;2022-08-05T04:48:13;21.20;78.46
68609;SHT31;55581;46.718;7.690;2022-08-05T04:50:44;21.40;78.80
68609;SHT31;55581;46.718;7.690;2022-08-05T04:53:13;21.51;78.49
68609;SHT31;55581;46.718;7.690;2022-08-05T04:55:42;21.57;79.99
68609;SHT31;55581;46.718;7.690;2022-08-05T04:58:10;21.57;79.77
68609;SHT31;55581;46.718;7.690;2022-08-05T05:00:37;21.51;80.30
68609;SHT31;55581;46.718;7.690;2022-08-05T05:03:04;21.49;80.36
68609;SHT31;55581;46.718;7.690;2022-08-05T05:05:30;21.53;80.47
68609;SHT31;55581;46.718;7.690;2022-08-05T05:10:26;21.57;80.10
68609;SHT31;55581;46.718;7.690;2022-08-05T05:12:52;21.61;80.57
68609;SHT31;55581;46.718;7.690;2022-08-05T05:15:17;21.63;81.71
68609;SHT31;55581;46.718;7.690;2022-08-05T05:17:45;21.58;81.20
68609;SHT31;55581;46.718;7.690;2022-08-05T05:20:12;21.51;82.29
68609;SHT31;55581;46.718;7.690;2022-08-05T05:22:38;21.55;80.66
68609;SHT31;55581;46.718;7.690;2022-08-05T05:25:04;21.64;80.90
68609;SHT31;55581;46.718;7.690;2022-08-05T05:27:32;21.68;80.25
68609;SHT31;55581;46.718;7.690;2022-08-05T05:29:58;21.78;80.34
68609;SHT31;55581;46.718;7.690;2022-08-05T05:32:23;21.89;81.00
68609;SHT31;55581;46.718;7.690;2022-08-05T05:34:49;21.78;81.32
68609;SHT31;55581;46.718;7.690;2022-08-05T05:37:14;21.78;81.92
68609;SHT31;55581;46.718;7.690;2022-08-05T05:39:41;21.78;81.78
68609;SHT31;55581;46.718;7.690;2022-08-05T05:42:06;21.75;80.63
68609;SHT31;55581;46.718;7.690;2022-08-05T05:44:34;21.84;80.25
68609;SHT31;55581;46.718;7.690;2022-08-05T05:47:00;21.97;80.39
68609;SHT31;55581;46.718;7.690;2022-08-05T05:49:26;22.16;79.00
68609;SHT31;55581;46.718;7.690;2022-08-05T05:51:52;22.29;78.30
68609;SHT31;55581;46.718;7.690;2022-08-05T05:54:18;22.44;78.23
68609;SHT31;55581;46.718;7.690;2022-08-05T05:56:44;22.43;78.00
68609;SHT31;55581;46.718;7.690;2022-08-05T05:59:09;22.46;77.53
68609;SHT31;55581;46.718;7.690;2022-08-05T06:01:36;22.59;76.39
68609;SHT31;55581;46.718;7.690;2022-08-05T06:04:03;22.68;75.72
68609;SHT31;55581;46.718;7.690;2022-08-05T06:06:28;22.75;75.83
68609;SHT31;55581;46.718;7.690;2022-08-05T06:08:54;22.84;74.94
68609;SHT31;55581;46.718;7.690;2022-08-05T06:11:19;22.90;74.64
68609;SHT31;55581;46.718;7.690;2022-08-05T06:13:45;22.86;76.27
68609;SHT31;55581;46.718;7.690;2022-08-05T06:16:10;22.97;75.09
68609;SHT31;55581;46.718;7.690;2022-08-05T06:18:36;23.02;75.13
68609;SHT31;55581;46.718;7.690;2022-08-05T06:21:02;23.01;75.64
68609;SHT31;55581;46.718;7.690;2022-08-05T06:23:28;23.02;75.85
68609;SHT31;55581;46.718;7.690;2022-08-05T06:25:56;23.12;75.32
68609;SHT31;55581;46.718;7.690;2022-08-05T06:28:22;23.18;74.11
68609;SHT31;55581;46.718;7.690;2022-08-05T06:30:48;23.19;75.97
68609;SHT31;55581;46.718;7.690;2022-08-05T06:33:13;23.26;75.45
68609;SHT31;55581;46.718;7.690;2022-08-05T06:35:38;23.32;75.11
68609;SHT31;55581;46.718;7.690;2022-08-05T06:38:04;23.36;74.31
68609;SHT31;55581;46.718;7.690;2022-08-05T06:40:32;23.25;73.11
68609;SHT31;55581;46.718;7.690;2022-08-05T06:42:58;23.32;72.39
68609;SHT31;55581;46.718;7.690;2022-08-05T06:45:24;23.39;71.72
68609;SHT31;55581;46.718;7.690;2022-08-05T06:47:49;23.36;71.76
68609;SHT31;55581;46.718;7.690;2022-08-05T06:50:15;23.35;72.39
68609;SHT31;55581;46.718;7.690;2022-08-05T06:52:40;23.38;72.36
68609;SHT31;55581;46.718;7.690;2022-08-05T06:55:06;23.55;71.56
68609;SHT31;55581;46.718;7.690;2022-08-05T06:57:31;23.53;71.29
68609;SHT31;55581;46.718;7.690;2022-08-05T06:59:57;23.52;71.43
68609;SHT31;55581;46.718;7.690;2022-08-05T07:02:26;23.32;73.71
68609;SHT31;55581;46.718;7.690;2022-08-05T07:04:52;23.42;73.94
68609;SHT31;55581;46.718;7.690;2022-08-05T07:07:18;23.46;74.00
68609;SHT31;55581;46.718;7.690;2022-08-05T07:09:43;23.56;73.65
68609;SHT31;55581;46.718;7.690;2022-08-05T07:12:09;23.73;73.24
68609;SHT31;55581;46.718;7.690;2022-08-05T07:14:54;23.66;73.37
68609;SHT31;55581;46.718;7.690;2022-08-05T07:17:38;23.62;73.42
68609;SHT31;55581;46.718;7.690;2022-08-05T07:20:04;23.59;73.30
68609;SHT31;55581;46.718;7.690;2022-08-05T07:22:29;23.43;74.26
68609;SHT31;55581;46.718;7.690;2022-08-05T07:24:59;23.56;72.04
68609;SHT31;55581;46.718;7.690;2022-08-05T07:27:25;23.67;71.86
68609;SHT31;55581;46.718;7.690;2022-08-05T07:29:50;23.81;70.78
68609;SHT31;55581;46.718;7.690;2022-08-05T07:32:18;23.71;71.58
68609;SHT31;55581;46.718;7.690;2022-08-05T07:34:44;23.64;71.41
68609;SHT31;55581;46.718;7.690;2022-08-05T07:37:09;23.75;70.36
68609;SHT31;55581;46.718;7.690;2022-08-05T07:39:35;23.91;70.78
68609;SHT31;55581;46.718;7.690;2022-08-05T07:42:00;24.05;70.52
68609;SHT31;55581;46.718;7.690;2022-08-05T07:44:26;24.18;70.05
68609;SHT31;55581;46.718;7.690;2022-08-05T07:46:51;24.42;70.05
68609;SHT31;55581;46.718;7.690;2022-08-05T07:49:17;24.67;66.70
68609;SHT31;55581;46.718;7.690;2022-08-05T07:51:46;24.82;70.14
68609;SHT31;55581;46.718;7.690;2022-08-05T07:54:12;25.04;69.27
68609;SHT31;55581;46.718;7.690;2022-08-05T07:56:37;24.98;68.80
68609;SHT31;55581;46.718;7.690;2022-08-05T07:59:03;25.21;67.42
68609;SHT31;55581;46.718;7.690;2022-08-05T08:01:28;25.21;68.13
68609;SHT31;55581;46.718;7.690;2022-08-05T08:03:56;25.27;66.39
68609;SHT31;55581;46.718;7.690;2022-08-05T08:06:21;25.24;66.47
68609;SHT31;55581;46.718;7.690;2022-08-05T08:08:47;25.14;65.99
68609;SHT31;55581;46.718;7.690;2022-08-05T08:11:13;25.24;67.27
68609;SHT31;55581;46.718;7.690;2022-08-05T08:13:41;25.41;65.99
68609;SHT31;55581;46.718;7.690;2022-08-05T08:16:07;25.76;63.44
68609;SHT31;55581;46.718;7.690;2022-08-05T08:18:32;25.98;62.78
68609;SHT31;55581;46.718;7.690;2022-08-05T08:20:58;26.28;62.85
68609;SHT31;55581;46.718;7.690;2022-08-05T08:23:23;26.56;60.02
68609;SHT31;55581;46.718;7.690;2022-08-05T08:25:51;26.66;59.48
68609;SHT31;55581;46.718;7.690;2022-08-05T08:28:17;26.58;59.16
68609;SHT31;55581;46.718;7.690;2022-08-05T08:30:42;26.21;59.96
68609;SHT31;55581;46.718;7.690;2022-08-05T08:33:11;26.31;60.27
68609;SHT31;55581;46.718;7.690;2022-08-05T08:35:37;26.34;59.63
68609;SHT31;55581;46.718;7.690;2022-08-05T08:38:02;26.20;59.52
68609;SHT31;55581;46.718;7.690;2022-08-05T08:40:32;26.10;59.32
68609;SHT31;55581;46.718;7.690;2022-08-05T08:42:58;26.01;61.24
68609;SHT31;55581;46.718;7.690;2022-08-05T08:45:24;26.17;62.28
68609;SHT31;55581;46.718;7.690;2022-08-05T08:47:50;26.30;62.08
68609;SHT31;55581;46.718;7.690;2022-08-05T08:50:19;26.35;62.24
68609;SHT31;55581;46.718;7.690;2022-08-05T08:52:52;26.60;60.94
68609;SHT31;55581;46.718;7.690;2022-08-05T08:55:18;26.87;60.19
68609;SHT31;55581;46.718;7.690;2022-08-05T08:57:45;27.15;57.45
68609;SHT31;55581;46.718;7.690;2022-08-05T09:00:11;27.17;55.44
68609;SHT31;55581;46.718;7.690;2022-08-05T09:02:37;27.34;59.23
68609;SHT31;55581;46.718;7.690;2022-08-05T09:05:03;27.40;59.61
68609;SHT31;55581;46.718;7.690;2022-08-05T09:07:29;27.37;58.12
68609;SHT31;55581;46.718;7.690;2022-08-05T09:09:54;27.47;56.55
68609;SHT31;55581;46.718;7.690;2022-08-05T09:12:20;27.72;61.13
68609;SHT31;55581;46.718;7.690;2022-08-05T09:14:46;27.97;59.59
68609;SHT31;55581;46.718;7.690;2022-08-05T09:17:11;28.06;59.39
68609;SHT31;55581;46.718;7.690;2022-08-05T09:19:37;28.03;55.62
68609;SHT31;55581;46.718;7.690;2022-08-05T09:22:03;28.27;57.82
68609;SHT31;55581;46.718;7.690;2022-08-05T09:24:28;28.33;56.43
68609;SHT31;55581;46.718;7.690;2022-08-05T09:26:56;28.47;57.57
68609;SHT31;55581;46.718;7.690;2022-08-05T09:29:40;28.25;58.76
68609;SHT31;55581;46.718;7.690;2022-08-05T09:32:10;27.99;57.33
68609;SHT31;55581;46.718;7.690;2022-08-05T09:34:52;27.92;56.23
68609;SHT31;55581;46.718;7.690;2022-08-05T09:37:25;27.72;55.39
68609;SHT31;55581;46.718;7.690;2022-08-05T09:39:50;27.70;53.79
68609;SHT31;55581;46.718;7.690;2022-08-05T09:42:18;27.59;56.42
68609;SHT31;55581;46.718;7.690;2022-08-05T09:44:53;27.30;56.79
68609;SHT31;55581;46.718;7.690;2022-08-05T09:47:24;27.20;54.69
68609;SHT31;55581;46.718;7.690;2022-08-05T09:49:55;27.26;52.34
68609;SHT31;55581;46.718;7.690;2022-08-05T09:55:08;27.15;61.37
68609;SHT31;55581;46.718;7.690;2022-08-05T09:57:37;27.13;62.71
68609;SHT31;55581;46.718;7.690;2022-08-05T10:00:18;27.20;61.61
68609;SHT31;55581;46.718;7.690;2022-08-05T10:02:49;27.26;62.26
68609;SHT31;55581;46.718;7.690;2022-08-05T10:05:20;27.23;60.98
68609;SHT31;55581;46.718;7.690;2022-08-05T10:07:47;27.37;59.78
68609;SHT31;55581;46.718;7.690;2022-08-05T10:10:13;27.57;55.75
68609;SHT31;55581;46.718;7.690;2022-08-05T10:12:43;28.06;53.56
68609;SHT31;55581;46.718;7.690;2022-08-05T10:15:23;28.44;50.83
68609;SHT31;55581;46.718;7.690;2022-08-05T10:20:35;29.31;53.64
68609;SHT31;55581;46.718;7.690;2022-08-05T10:23:01;29.61;56.19
68609;SHT31;55581;46.718;7.690;2022-08-05T10:25:26;29.51;53.75
68609;SHT31;55581;46.718;7.690;2022-08-05T10:27:52;29.64;53.83
68609;SHT31;55581;46.718;7.690;2022-08-05T10:30:20;29.54;52.64
68609;SHT31;55581;46.718;7.690;2022-08-05T10:32:46;29.77;48.87
68609;SHT31;55581;46.718;7.690;2022-08-05T10:35:13;29.67;48.90
68609;SHT31;55581;46.718;7.690;2022-08-05T10:37:41;29.27;50.36
68609;SHT31;55581;46.718;7.690;2022-08-05T10:40:16;29.10;49.62
68609;SHT31;55581;46.718;7.690;2022-08-05T10:42:46;29.29;47.20
68609;SHT31;55581;46.718;7.690;2022-08-05T10:45:15;29.37;49.25
68609;SHT31;55581;46.718;7.690;2022-08-05T10:47:40;29.74;48.25
68609;SHT31;55581;46.718;7.690;2022-08-05T10:50:10;29.70;47.27
68609;SHT31;55581;46.718;7.690;2022-08-05T10:52:45;29.71;47.71
68609;SHT31;55581;46.718;7.690;2022-08-05T10:56:00;29.92;46.30
68609;SHT31;55581;46.718;7.690;2022-08-05T10:58:26;30.26;44.03
68609;SHT31;55581;46.718;7.690;2022-08-05T11:00:54;29.92;46.69
68609;SHT31;55581;46.718;7.690;2022-08-05T11:03:20;30.13;46.37
68609;SHT31;55581;46.718;7.690;2022-08-05T11:06:05;30.06;45.86
68609;SHT31;55581;46.718;7.690;2022-08-05T11:08:31;30.36;44.96
68609;SHT31;55581;46.718;7.690;2022-08-05T11:11:35;30.08;45.07
68609;SHT31;55581;46.718;7.690;2022-08-05T11:14:01;29.86;46.02
68609;SHT31;55581;46.718;7.690;2022-08-05T11:16:28;29.92;43.94
68609;SHT31;55581;46.718;7.690;2022-08-05T11:19:28;29.43;46.52
68609;SHT31;55581;46.718;7.690;2022-08-05T11:21:55;29.26;48.03
68609;SHT31;55581;46.718;7.690;2022-08-05T11:24:21;29.13;48.37
68609;SHT31;55581;46.718;7.690;2022-08-05T11:26:49;29.02;50.13
68609;SHT31;55581;46.718;7.690;2022-08-05T11:29:37;28.80;52.68
68609;SHT31;55581;46.718;7.690;2022-08-05T11:32:29;28.65;51.11
68609;SHT31;55581;46.718;7.690;2022-08-05T11:34:55;28.64;49.79
68609;SHT31;55581;46.718;7.690;2022-08-05T11:40:18;28.98;48.51
68609;SHT31;55581;46.718;7.690;2022-08-05T11:42:45;29.24;47.82
68609;SHT31;55581;46.718;7.690;2022-08-05T11:45:10;29.07;52.77
68609;SHT31;55581;46.718;7.690;2022-08-05T11:47:38;29.12;55.03
68609;SHT31;55581;46.718;7.690;2022-08-05T11:50:04;29.02;54.74
68609;SHT31;55581;46.718;7.690;2022-08-05T11:52:30;29.12;51.45
68609;SHT31;55581;46.718;7.690;2022-08-05T11:54:56;29.24;51.02
68609;SHT31;55581;46.718;7.690;2022-08-05T11:57:28;29.49;50.84
68609;SHT31;55581;46.718;7.690;2022-08-05T11:59:54;29.85;49.48
68609;SHT31;55581;46.718;7.690;2022-08-05T12:02:24;30.10;47.63
68609;SHT31;55581;46.718;7.690;2022-08-05T12:04:50;30.08;48.12
68609;SHT31;55581;46.718;7.690;2022-08-05T12:07:17;30.17;47.85
68609;SHT31;55581;46.718;7.690;2022-08-05T12:09:47;30.40;46.55
68609;SHT31;55581;46.718;7.690;2022-08-05T12:12:22;30.78;44.85
68609;SHT31;55581;46.718;7.690;2022-08-05T12:14:48;31.05;44.08
68609;SHT31;55581;46.718;7.690;2022-08-05T12:17:14;31.14;44.11
68609;SHT31;55581;46.718;7.690;2022-08-05T12:19:48;31.35;42.70
68609;SHT31;55581;46.718;7.690;2022-08-05T12:22:16;31.29;42.57
68609;SHT31;55581;46.718;7.690;2022-08-05T12:24:47;31.36;41.57
68609;SHT31;55581;46.718;7.690;2022-08-05T12:27:20;31.56;40.43
68609;SHT31;55581;46.718;7.690;2022-08-05T12:30:14;31.78;41.00
68609;SHT31;55581;46.718;7.690;2022-08-05T12:32:45;32.07;41.31
68609;SHT31;55581;46.718;7.690;2022-08-05T12:35:11;32.26;39.86
68609;SHT31;55581;46.718;7.690;2022-08-05T12:37:39;32.26;39.37
68609;SHT31;55581;46.718;7.690;2022-08-05T12:40:07;32.42;39.48
68609;SHT31;55581;46.718;7.690;2022-08-05T12:42:34;32.52;39.30
68609;SHT31;55581;46.718;7.690;2022-08-05T12:45:05;32.56;38.57
68609;SHT31;55581;46.718;7.690;2022-08-05T12:47:31;32.55;40.23
68609;SHT31;55581;46.718;7.690;2022-08-05T12:49:58;32.33;42.62
68609;SHT31;55581;46.718;7.690;2022-08-05T12:52:24;31.97;44.76
68609;SHT31;55581;46.718;7.690;2022-08-05T12:54:50;31.98;44.45
68609;SHT31;55581;46.718;7.690;2022-08-05T12:57:17;32.01;42.23
68609;SHT31;55581;46.718;7.690;2022-08-05T12:59:53;31.90;42.88
68609;SHT31;55581;46.718;7.690;2022-08-05T13:02:26;32.04;41.72
68609;SHT31;55581;46.718;7.690;2022-08-05T13:04:53;31.94;42.19
68609;SHT31;55581;46.718;7.690;2022-08-05T13:07:23;31.73;42.51
68609;SHT31;55581;46.718;7.690;2022-08-05T13:09:54;31.47;43.26
68609;SHT31;55581;46.718;7.690;2022-08-05T13:12:21;31.25;43.97
68609;SHT31;55581;46.718;7.690;2022-08-05T13:14:51;31.21;44.92
68609;SHT31;55581;46.718;7.690;2022-08-05T13:17:21;30.87;45.93
68609;SHT31;55581;46.718;7.690;2022-08-05T13:20:12;30.78;45.90
68609;SHT31;55581;46.718;7.690;2022-08-05T13:22:51;30.91;44.71
68609;SHT31;55581;46.718;7.690;2022-08-05T13:25:18;30.68;47.36
68609;SHT31;55581;46.718;7.690;2022-08-05T13:27:49;30.80;47.58
68609;SHT31;55581;46.718;7.690;2022-08-05T13:30:17;30.72;48.75
68609;SHT31;55581;46.718;7.690;2022-08-05T13:32:43;30.53;49.49
68609;SHT31;55581;46.718;7.690;2022-08-05T13:35:13;30.39;50.32
68609;SHT31;55581;46.718;7.690;2022-08-05T13:37:40;30.08;52.74
68609;SHT31;55581;46.718;7.690;2022-08-05T13:40:12;29.88;50.62
68609;SHT31;55581;46.718;7.690;2022-08-05T13:42:38;29.82;52.01
68609;SHT31;55581;46.718;7.690;2022-08-05T13:45:04;29.78;51.73
68609;SHT31;55581;46.718;7.690;2022-08-05T13:47:30;29.82;50.37
68609;SHT31;55581;46.718;7.690;2022-08-05T13:49:55;29.81;53.34
68609;SHT31;55581;46.718;7.690;2022-08-05T13:52:26;29.61;57.46
68609;SHT31;55581;46.718;7.690;2022-08-05T13:54:54;29.46;51.42
68609;SHT31;55581;46.718;7.690;2022-08-05T13:57:20;29.57;52.07
68609;SHT31;55581;46.718;7.690;2022-08-05T13:59:49;29.62;50.05
68609;SHT31;55581;46.718;7.690;2022-08-05T14:02:14;29.34;50.10
68609;SHT31;55581;46.718;7.690;2022-08-05T14:04:44;29.23;50.40
68609;SHT31;55581;46.718;7.690;2022-08-05T14:07:37;29.33;50.06
68609;SHT31;55581;46.718;7.690;2022-08-05T14:10:17;29.34;50.17
68609;SHT31;55581;46.718;7.690;2022-08-05T14:12:43;29.16;50.22
68609;SHT31;55581;46.718;7.690;2022-08-05T14:15:10;29.23;50.23
68609;SHT31;55581;46.718;7.690;2022-08-05T14:17:36;29.26;50.39
68609;SHT31;55581;46.718;7.690;2022-08-05T14:20:03;29.16;49.99
68609;SHT31;55581;46.718;7.690;2022-08-05T14:22:32;28.91;49.44
68609;SHT31;55581;46.718;7.690;2022-08-05T14:24:59;28.89;50.14
68609;SHT31;55581;46.718;7.690;2022-08-05T14:27:24;28.82;47.33
68609;SHT31;55581;46.718;7.690;2022-08-05T14:29:50;28.71;48.21
68609;SHT31;55581;46.718;7.690;2022-08-05T14:32:15;28.62;51.63
68609;SHT31;55581;46.718;7.690;2022-08-05T14:34:41;28.58;53.95
68609;SHT31;55581;46.718;7.690;2022-08-05T14:37:06;28.41;51.58
68609;SHT31;55581;46.718;7.690;2022-08-05T14:39:32;28.02;51.96
68609;SHT31;55581;46.718;7.690;2022-08-05T14:41:58;27.92;54.71
68609;SHT31;55581;46.718;7.690;2022-08-05T14:44:23;27.82;54.44
68609;SHT31;55581;46.718;7.690;2022-08-05T14:46:49;27.76;54.28
68609;SHT31;55581;46.718;7.690;2022-08-05T14:49:14;27.75;55.26
68609;SHT31;55581;46.718;7.690;2022-08-05T14:51:40;27.63;55.64
68609;SHT31;55581;46.718;7.690;2022-08-05T14:54:06;27.57;56.78
68609;SHT31;55581;46.718;7.690;2022-08-05T14:56:32;27.38;59.05
68609;SHT31;55581;46.718;7.690;2022-08-05T14:58:58;27.30;60.22
68609;SHT31;55581;46.718;7.690;2022-08-05T15:01:24;27.34;58.38
68609;SHT31;55581;46.718;7.690;2022-08-05T15:03:49;27.29;59.71
68609;SHT31;55581;46.718;7.690;2022-08-05T15:06:15;27.23;61.77
68609;SHT31;55581;46.718;7.690;2022-08-05T15:08:44;27.03;61.37
68609;SHT31;55581;46.718;7.690;2022-08-05T15:11:12;27.08;60.74
68609;SHT31;55581;46.718;7.690;2022-08-05T15:13:38;27.18;60.61
68609;SHT31;55581;46.718;7.690;2022-08-05T15:16:05;27.44;59.35
68609;SHT31;55581;46.718;7.690;2022-08-05T15:18:30;27.62;58.78
68609;SHT31;55581;46.718;7.690;2022-08-05T15:20:58;27.66;57.52
68609;SHT31;55581;46.718;7.690;2022-08-05T15:23:23;27.40;56.39
68609;SHT31;55581;46.718;7.690;2022-08-05T15:25:49;27.62;57.44
68609;SHT31;55581;46.718;7.690;2022-08-05T15:28:14;27.35;60.78
68609;SHT31;55581;46.718;7.690;2022-08-05T15:30:41;27.29;60.56
68609;SHT31;55581;46.718;7.690;2022-08-05T15:33:06;26.94;61.10
68609;SHT31;55581;46.718;7.690;2022-08-05T15:35:32;26.66;60.73
68609;SHT31;55581;46.718;7.690;2022-08-05T15:38:00;26.60;61.72
68609;SHT31;55581;46.718;7.690;2022-08-05T15:40:26;26.49;61.65
68609;SHT31;55581;46.718;7.690;2022-08-05T15:42:54;26.44;61.08
68609;SHT31;55581;46.718;7.690;2022-08-05T15:45:21;26.47;60.09
68609;SHT31;55581;46.718;7.690;2022-08-05T15:47:46;26.44;58.18
68609;SHT31;55581;46.718;7.690;2022-08-05T15:50:17;26.37;58.85
68609;SHT31;55581;46.718;7.690;2022-08-05T15:52:42;26.34;59.76
68609;SHT31;55581;46.718;7.690;2022-08-05T15:55:14;26.17;61.05
68609;SHT31;55581;46.718;7.690;2022-08-05T15:57:40;25.93;57.85
68609;SHT31;55581;46.718;7.690;2022-08-05T16:00:07;25.79;57.00